Time;durP1;ratioP1;P1;durP2;ratioP2;P2;SDS_P1;SDS_P2;PMS_P1;PMS_P2;Temp;Humidity;BMP_temperature;BMP_pressure;BME280_temperature;BME280_humidity;BME280_pressure;Samples;Min_cycle;Max_cycle;Signal;HPM_P1;HPM_P2
2023/09/22 00:00:57;;;;;;;1.50;0.82;;;18.30;99.90;;;;;;5041523;28;20204;-65
2023/09/22 00:03:26;;;;;;;0.88;0.70;;;18.20;99.90;;;;;;5042874;28;20196;-65
2023/09/22 00:05:54;;;;;;;2.40;0.70;;;18.20;99.90;;;;;;5037970;28;20267;-63
2023/09/22 00:08:22;;;;;;;1.17;0.80;;;17.90;99.90;;;;;;5036891;28;20266;-63
2023/09/22 00:10:50;;;;;;;0.73;0.60;;;17.60;99.90;;;;;;5037655;28;20213;-63
2023/09/22 00:13:18;;;;;;;0.80;0.60;;;17.60;99.90;;;;;;5036678;28;20215;-64
2023/09/22 00:15:47;;;;;;;0.70;0.60;;;17.60;99.90;;;;;;5037767;28;20212;-64
2023/09/22 00:18:15;;;;;;;0.80;0.57;;;17.40;99.90;;;;;;5039928;28;20303;-64
2023/09/22 00:20:43;;;;;;;1.73;0.70;;;17.50;99.90;;;;;;5049050;28;20195;-65
2023/09/22 00:23:12;;;;;;;0.60;0.55;;;17.30;99.90;;;;;;5039538;28;20261;-64
2023/09/22 00:25:39;;;;;;;2.38;0.88;;;17.20;99.90;;;;;;5046481;28;20209;-63
2023/09/22 00:28:08;;;;;;;1.38;0.75;;;17.10;99.90;;;;;;5031469;28;20644;-64
2023/09/22 00:30:36;;;;;;;1.10;0.60;;;17.00;99.90;;;;;;5039551;28;20204;-64
2023/09/22 00:33:05;;;;;;;1.17;0.70;;;17.10;99.90;;;;;;5035907;28;20227;-63
2023/09/22 00:35:33;;;;;;;0.80;0.63;;;17.10;99.90;;;;;;5042607;28;20326;-65
2023/09/22 00:38:01;;;;;;;0.73;0.70;;;17.40;99.90;;;;;;5041406;28;20219;-63
2023/09/22 00:40:29;;;;;;;1.17;0.60;;;17.20;99.90;;;;;;5049579;28;20210;-64
2023/09/22 00:43:09;;;;;;;1.00;0.82;;;17.20;99.90;;;;;;5030228;28;20189;-64
2023/09/22 00:45:42;;;;;;;1.10;0.80;;;17.10;99.90;;;;;;5038117;28;20698;-63
2023/09/22 00:48:20;;;;;;;0.80;0.70;;;17.00;99.90;;;;;;5036356;28;20278;-63
2023/09/22 00:50:48;;;;;;;0.73;0.60;;;17.10;99.90;;;;;;5041087;28;20290;-64
2023/09/22 00:53:18;;;;;;;1.80;0.98;;;17.10;99.90;;;;;;5034208;28;20221;-63
2023/09/22 00:55:48;;;;;;;1.10;0.65;;;17.30;99.90;;;;;;5036873;28;20205;-65
2023/09/22 00:58:16;;;;;;;0.75;0.60;;;17.50;99.90;;;;;;5036865;28;20224;-65
2023/09/22 01:00:48;;;;;;;0.80;0.70;;;17.40;99.90;;;;;;5036374;28;20253;-66
2023/09/22 01:03:17;;;;;;;0.93;0.75;;;17.30;99.90;;;;;;5044510;28;20196;-66
2023/09/22 01:06:09;;;;;;;1.10;0.95;;;17.20;99.90;;;;;;5032852;28;20196;-63
2023/09/22 01:08:37;;;;;;;2.00;0.70;;;17.30;99.90;;;;;;5038168;28;20231;-64
2023/09/22 01:11:04;;;;;;;0.70;0.60;;;17.20;99.90;;;;;;5037826;28;20201;-64
2023/09/22 01:13:32;;;;;;;1.77;0.70;;;17.30;99.90;;;;;;5040553;28;20223;-65
2023/09/22 01:16:01;;;;;;;2.00;1.00;;;17.40;99.90;;;;;;5027570;28;20208;-64
2023/09/22 01:18:30;;;;;;;1.45;0.90;;;17.40;99.90;;;;;;5034408;28;20220;-65
2023/09/22 01:20:59;;;;;;;0.98;0.88;;;17.50;99.90;;;;;;5039827;28;20204;-64
2023/09/22 01:23:28;;;;;;;1.70;0.80;;;17.30;99.90;;;;;;5038497;28;20205;-64
2023/09/22 01:25:56;;;;;;;1.48;0.98;;;17.30;99.90;;;;;;5036444;28;20213;-64
2023/09/22 01:28:24;;;;;;;1.02;0.93;;;17.50;99.90;;;;;;5038192;28;20220;-64
2023/09/22 01:30:52;;;;;;;0.70;0.60;;;17.50;99.90;;;;;;5037458;28;20536;-65
2023/09/22 01:33:21;;;;;;;0.80;0.70;;;17.50;99.90;;;;;;5033768;28;20259;-64
2023/09/22 01:35:49;;;;;;;0.90;0.60;;;17.30;99.90;;;;;;5039262;28;20196;-63
2023/09/22 01:38:19;;;;;;;1.60;0.80;;;17.50;99.90;;;;;;5037352;28;20590;-64
2023/09/22 01:40:48;;;;;;;0.90;0.80;;;17.50;99.90;;;;;;5040821;28;20207;-63
2023/09/22 01:43:17;;;;;;;2.03;1.02;;;17.30;99.90;;;;;;5034194;28;20203;-64
2023/09/22 01:45:45;;;;;;;0.82;0.70;;;17.10;99.90;;;;;;5033964;28;20204;-64
2023/09/22 01:48:13;;;;;;;0.80;0.60;;;17.00;99.90;;;;;;5037667;28;20231;-63
2023/09/22 01:50:41;;;;;;;0.80;0.80;;;17.00;99.90;;;;;;5043761;28;20688;-63
2023/09/22 01:53:11;;;;;;;2.28;0.80;;;17.00;99.90;;;;;;5034036;28;20554;-62
2023/09/22 01:55:39;;;;;;;1.20;0.90;;;17.00;99.90;;;;;;5035239;28;20197;-66
2023/09/22 01:58:10;;;;;;;0.80;0.70;;;17.20;99.90;;;;;;5034348;28;20260;-64
2023/09/22 02:00:39;;;;;;;1.52;1.00;;;17.20;99.90;;;;;;5036025;28;20205;-63
2023/09/22 02:03:08;;;;;;;0.68;0.60;;;17.40;99.90;;;;;;5037285;28;20214;-68
2023/09/22 02:05:36;;;;;;;1.60;1.33;;;17.70;99.90;;;;;;5038046;28;20209;-62
2023/09/22 02:08:05;;;;;;;0.70;0.60;;;17.70;99.90;;;;;;5032477;28;20223;-63
2023/09/22 02:10:34;;;;;;;3.40;0.75;;;17.50;99.90;;;;;;5036640;28;20208;-63
2023/09/22 02:13:01;;;;;;;1.02;0.70;;;17.40;99.90;;;;;;5034056;28;20211;-67
2023/09/22 02:15:31;;;;;;;5.68;1.00;;;17.40;99.90;;;;;;5043262;28;20569;-65
2023/09/22 02:17:59;;;;;;;0.93;0.70;;;17.20;99.90;;;;;;5036455;28;20281;-63
2023/09/22 02:20:28;;;;;;;1.63;0.88;;;17.10;99.90;;;;;;5033266;28;20235;-63
2023/09/22 02:22:58;;;;;;;1.20;0.70;;;16.70;99.90;;;;;;5040976;28;20283;-69
2023/09/22 02:25:26;;;;;;;0.90;0.80;;;16.40;99.90;;;;;;5038277;28;20686;-63
2023/09/22 02:27:55;;;;;;;0.70;0.60;;;16.40;99.90;;;;;;5035626;28;20225;-63
2023/09/22 02:30:24;;;;;;;1.38;1.20;;;16.80;99.90;;;;;;5034699;28;20201;-64
2023/09/22 02:32:54;;;;;;;1.20;1.10;;;17.00;99.90;;;;;;5033662;28;20206;-63
2023/09/22 02:35:22;;;;;;;0.63;0.63;;;17.10;99.90;;;;;;5036134;28;20279;-63
2023/09/22 02:37:50;;;;;;;1.33;0.70;;;17.50;99.90;;;;;;5033065;28;20228;-63
2023/09/22 02:40:18;;;;;;;7.35;5.90;;;17.70;99.90;;;;;;5041995;28;20748;-63
2023/09/22 02:42:46;;;;;;;3.45;2.00;;;17.90;99.90;;;;;;5035917;28;20287;-64
2023/09/22 02:45:15;;;;;;;1.50;1.00;;;18.20;99.90;;;;;;5036609;28;20211;-65
2023/09/22 02:47:43;;;;;;;0.85;0.60;;;18.10;99.90;;;;;;5033446;28;20907;-67
2023/09/22 02:50:17;;;;;;;1.65;0.90;;;18.00;99.90;;;;;;5037569;28;20208;-63
2023/09/22 02:52:45;;;;;;;1.02;0.85;;;18.00;99.90;;;;;;5042401;28;20274;-63
2023/09/22 02:55:13;;;;;;;1.65;1.50;;;17.90;99.90;;;;;;5034923;28;20307;-63
2023/09/22 02:57:42;;;;;;;1.10;1.00;;;17.90;99.90;;;;;;5035493;28;21744;-65
2023/09/22 03:00:18;;;;;;;1.10;0.80;;;17.80;99.90;;;;;;5027206;28;20205;-63
2023/09/22 03:02:48;;;;;;;1.48;1.38;;;17.80;99.90;;;;;;5036022;28;20207;-63
2023/09/22 03:05:18;;;;;;;1.85;0.93;;;17.80;99.90;;;;;;5034387;28;20283;-66
2023/09/22 03:07:47;;;;;;;1.42;0.95;;;17.80;99.90;;;;;;5033437;28;20235;-63
2023/09/22 03:10:16;;;;;;;8.15;0.90;;;17.70;99.90;;;;;;5027368;28;20310;-63
2023/09/22 03:12:44;;;;;;;1.10;0.80;;;17.70;99.90;;;;;;5035706;28;20231;-64
2023/09/22 03:15:12;;;;;;;0.80;0.73;;;17.80;99.90;;;;;;5033205;28;20216;-64
2023/09/22 03:17:41;;;;;;;0.73;0.70;;;17.90;99.90;;;;;;5039384;28;20628;-64
2023/09/22 03:20:12;;;;;;;3.65;0.80;;;17.90;99.90;;;;;;5033506;28;20295;-65
2023/09/22 03:22:42;;;;;;;2.35;0.90;;;17.90;99.90;;;;;;5036073;28;20205;-65
2023/09/22 03:25:11;;;;;;;1.15;0.70;;;17.90;99.90;;;;;;5031892;28;20213;-64
2023/09/22 03:27:39;;;;;;;2.08;0.85;;;17.80;99.90;;;;;;5032523;28;20320;-64
2023/09/22 03:30:09;;;;;;;1.10;0.95;;;17.70;99.90;;;;;;5034825;28;20212;-64
2023/09/22 03:32:39;;;;;;;4.93;0.90;;;17.70;99.90;;;;;;5039205;28;20283;-64
2023/09/22 03:35:08;;;;;;;0.90;0.80;;;17.70;99.90;;;;;;5037086;28;20704;-64
2023/09/22 03:37:37;;;;;;;1.20;0.90;;;17.70;99.90;;;;;;5040789;28;20757;-64
2023/09/22 03:40:10;;;;;;;0.80;0.70;;;17.60;99.90;;;;;;5036201;28;20200;-65
2023/09/22 03:42:38;;;;;;;1.13;1.02;;;17.60;99.90;;;;;;5031155;28;20258;-65
2023/09/22 03:45:07;;;;;;;0.95;0.70;;;17.70;99.90;;;;;;5023250;28;20727;-65
2023/09/22 03:47:36;;;;;;;1.35;0.80;;;17.70;99.90;;;;;;5031317;28;20215;-65
2023/09/22 03:50:06;;;;;;;0.98;0.90;;;17.70;99.90;;;;;;5039288;28;20204;-64
2023/09/22 03:52:34;;;;;;;0.95;0.80;;;17.80;99.90;;;;;;5031451;28;20203;-65
2023/09/22 03:55:02;;;;;;;0.73;0.60;;;17.70;99.90;;;;;;5031376;28;20623;-65
2023/09/22 03:57:32;;;;;;;0.90;0.80;;;18.00;99.90;;;;;;4995971;28;1069538;-63
2023/09/22 04:00:00;;;;;;;3.33;1.05;;;17.90;99.90;;;;;;5034384;28;20625;-65
2023/09/22 04:02:28;;;;;;;1.77;0.70;;;18.00;99.90;;;;;;5038992;28;20211;-64
2023/09/22 04:04:57;;;;;;;0.90;0.80;;;18.00;99.90;;;;;;5036959;28;20212;-64
2023/09/22 04:07:25;;;;;;;3.17;0.90;;;18.10;99.90;;;;;;5030646;28;20220;-65
2023/09/22 04:09:53;;;;;;;2.05;1.13;;;18.30;99.90;;;;;;5026923;28;20208;-65
2023/09/22 04:12:21;;;;;;;1.10;0.80;;;18.30;99.90;;;;;;5024161;28;20208;-64
2023/09/22 04:14:50;;;;;;;0.80;0.73;;;18.30;99.90;;;;;;5018579;28;20236;-63
2023/09/22 04:17:19;;;;;;;1.88;1.77;;;18.30;99.90;;;;;;5028574;28;20224;-67
2023/09/22 04:19:49;;;;;;;1.42;0.80;;;18.30;99.90;;;;;;5030943;28;20212;-64
2023/09/22 04:22:18;;;;;;;1.05;0.77;;;18.20;99.90;;;;;;5023049;28;20215;-64
2023/09/22 04:24:50;;;;;;;1.00;0.80;;;18.10;99.90;;;;;;5020396;28;20228;-65
2023/09/22 04:27:18;;;;;;;1.08;0.90;;;18.00;99.90;;;;;;5022492;28;20224;-64
2023/09/22 04:29:47;;;;;;;1.60;0.80;;;17.90;99.90;;;;;;5030627;28;20219;-63
2023/09/22 04:32:16;;;;;;;1.13;0.70;;;17.90;99.90;;;;;;5030131;28;20647;-65
2023/09/22 04:34:44;;;;;;;1.10;0.68;;;17.80;99.90;;;;;;5030100;28;20220;-64
2023/09/22 04:37:15;;;;;;;3.08;1.23;;;17.80;99.90;;;;;;5030076;28;20209;-63
2023/09/22 04:39:44;;;;;;;1.08;0.90;;;17.80;99.90;;;;;;5027026;28;20284;-63
2023/09/22 04:42:12;;;;;;;0.70;0.63;;;18.00;99.90;;;;;;5027250;28;20230;-64
2023/09/22 04:44:40;;;;;;;1.38;0.70;;;17.90;99.90;;;;;;5014743;28;20205;-64
2023/09/22 04:47:08;;;;;;;1.02;0.70;;;17.90;99.90;;;;;;5018147;28;20264;-65
2023/09/22 04:49:37;;;;;;;2.05;0.90;;;18.00;99.90;;;;;;5028176;28;20203;-67
2023/09/22 04:52:05;;;;;;;0.80;0.70;;;18.00;99.90;;;;;;5035453;28;20196;-64
2023/09/22 04:54:33;;;;;;;1.42;0.80;;;18.10;99.90;;;;;;5031711;28;20690;-65
2023/09/22 04:57:01;;;;;;;3.50;0.95;;;18.40;99.90;;;;;;5038559;28;20195;-64
2023/09/22 04:59:29;;;;;;;1.45;0.93;;;18.40;99.90;;;;;;5072973;23;20578;-71
2023/09/22 05:01:57;;;;;;;0.82;0.70;;;18.50;99.90;;;;;;5068412;28;20203;-70
2023/09/22 05:04:25;;;;;;;1.08;1.02;;;18.20;99.90;;;;;;5066303;28;20226;-71
2023/09/22 05:06:56;;;;;;;0.80;0.70;;;18.20;99.90;;;;;;5065356;28;20638;-71
2023/09/22 05:09:24;;;;;;;0.95;0.70;;;18.10;99.90;;;;;;5054308;28;20262;-70
2023/09/22 05:11:52;;;;;;;1.10;0.85;;;17.90;99.90;;;;;;5050077;28;20673;-72
2023/09/22 05:14:20;;;;;;;0.65;0.60;;;17.80;99.90;;;;;;5050361;28;20199;-71
2023/09/22 05:16:48;;;;;;;5.28;0.85;;;17.80;99.90;;;;;;5051452;28;20239;-71
2023/09/22 05:19:16;;;;;;;1.08;0.90;;;17.70;99.90;;;;;;5039792;28;20227;-71
2023/09/22 05:21:44;;;;;;;0.70;0.60;;;17.70;99.90;;;;;;5044405;28;20288;-72
2023/09/22 05:24:13;;;;;;;0.80;0.70;;;17.80;99.90;;;;;;5047553;28;20208;-71
2023/09/22 05:26:41;;;;;;;1.00;0.70;;;17.80;99.90;;;;;;5042373;28;20208;-72
2023/09/22 05:29:10;;;;;;;1.20;0.77;;;17.80;99.90;;;;;;5042951;28;20219;-71
2023/09/22 05:31:38;;;;;;;1.35;0.60;;;17.90;99.90;;;;;;5048494;28;20211;-72
2023/09/22 05:34:06;;;;;;;0.80;0.60;;;17.80;99.90;;;;;;5047221;28;20196;-68
2023/09/22 05:36:34;;;;;;;0.60;0.50;;;17.90;99.90;;;;;;5046621;28;20337;-70
2023/09/22 05:39:08;;;;;;;0.70;0.70;;;18.00;99.90;;;;;;5044713;28;20303;-72
2023/09/22 05:41:38;;;;;;;2.08;0.90;;;17.90;99.90;;;;;;5050354;28;20207;-70
2023/09/22 05:44:07;;;;;;;2.50;1.80;;;17.80;99.90;;;;;;5049716;28;20318;-71
2023/09/22 05:46:35;;;;;;;0.90;0.70;;;17.80;99.90;;;;;;5051463;28;20250;-69
2023/09/22 05:49:06;;;;;;;0.70;0.70;;;17.50;99.90;;;;;;5046875;28;20224;-69
2023/09/22 05:51:35;;;;;;;0.90;0.70;;;17.20;99.90;;;;;;5051969;28;20536;-71
2023/09/22 05:54:04;;;;;;;1.98;0.98;;;17.20;99.90;;;;;;5044572;28;20246;-70
2023/09/22 05:56:32;;;;;;;0.70;0.50;;;17.20;99.90;;;;;;5046239;28;20208;-70
2023/09/22 05:59:01;;;;;;;1.00;0.85;;;17.30;99.90;;;;;;5050514;28;20242;-70
2023/09/22 06:01:30;;;;;;;1.15;1.02;;;17.30;99.90;;;;;;5048040;28;20872;-71
2023/09/22 06:03:58;;;;;;;0.93;0.70;;;17.00;99.90;;;;;;5049429;28;20646;-70
2023/09/22 06:06:26;;;;;;;1.10;0.90;;;17.10;99.90;;;;;;5044790;28;20220;-71
2023/09/22 06:08:54;;;;;;;0.70;0.70;;;17.70;99.90;;;;;;5037893;28;20234;-70
2023/09/22 06:11:22;;;;;;;1.15;0.70;;;17.90;99.90;;;;;;5045865;28;20440;-70
2023/09/22 06:13:50;;;;;;;0.77;0.73;;;18.00;99.90;;;;;;5038538;28;20251;-69
2023/09/22 06:16:19;;;;;;;3.50;2.42;;;18.20;99.90;;;;;;5039964;28;20274;-70
2023/09/22 06:18:48;;;;;;;0.90;0.80;;;18.30;99.90;;;;;;5040146;28;20316;-70
2023/09/22 06:21:16;;;;;;;1.63;0.77;;;18.30;99.90;;;;;;5038580;28;20315;-68
2023/09/22 06:23:43;;;;;;;0.98;0.95;;;18.20;99.90;;;;;;5040869;28;20262;-69
2023/09/22 06:26:12;;;;;;;1.23;1.00;;;17.90;99.90;;;;;;5041245;28;20204;-73
2023/09/22 06:28:40;;;;;;;2.47;0.80;;;17.70;99.90;;;;;;5039997;28;20310;-70
2023/09/22 06:31:08;;;;;;;1.10;1.00;;;17.20;99.90;;;;;;5037892;28;20222;-69
2023/09/22 06:33:37;;;;;;;1.42;1.10;;;17.10;99.90;;;;;;5040060;28;20215;-69
2023/09/22 06:36:06;;;;;;;1.30;1.08;;;17.30;99.90;;;;;;5038768;28;20231;-68
2023/09/22 06:38:34;;;;;;;4.10;1.02;;;17.20;99.90;;;;;;5039443;28;20228;-69
2023/09/22 06:41:04;;;;;;;1.20;0.80;;;17.00;99.90;;;;;;5036876;28;20747;-70
2023/09/22 06:43:33;;;;;;;1.67;0.82;;;16.80;99.90;;;;;;5038876;28;20216;-70
2023/09/22 06:46:04;;;;;;;1.60;1.00;;;16.90;99.90;;;;;;5037992;28;20211;-70
2023/09/22 06:48:32;;;;;;;1.40;0.77;;;17.10;99.90;;;;;;5037937;28;20231;-69
2023/09/22 06:51:02;;;;;;;1.27;0.90;;;17.20;99.90;;;;;;5036046;28;20208;-70
2023/09/22 06:53:34;;;;;;;3.00;0.90;;;17.00;99.90;;;;;;5039761;28;20203;-69
2023/09/22 06:56:06;;;;;;;1.15;1.00;;;17.00;99.90;;;;;;5039021;28;20332;-69
2023/09/22 06:58:36;;;;;;;2.65;0.82;;;17.10;99.90;;;;;;5038720;28;20366;-71
2023/09/22 07:01:09;;;;;;;1.00;0.90;;;17.30;99.90;;;;;;5036774;28;20200;-70
2023/09/22 07:03:38;;;;;;;1.40;1.15;;;17.20;99.90;;;;;;5039106;28;20219;-69
2023/09/22 07:06:10;;;;;;;1.75;0.90;;;17.20;99.90;;;;;;5038872;28;20671;-70
2023/09/22 07:08:38;;;;;;;0.98;0.70;;;17.30;99.90;;;;;;5038684;28;20231;-70
2023/09/22 07:11:08;;;;;;;1.42;1.20;;;17.10;99.90;;;;;;5037199;28;20223;-70
2023/09/22 07:13:36;;;;;;;1.60;0.70;;;16.80;99.90;;;;;;5039535;28;20290;-69
2023/09/22 07:16:05;;;;;;;1.00;0.80;;;16.70;99.90;;;;;;5038876;28;20228;-69
2023/09/22 07:18:34;;;;;;;0.90;0.70;;;16.80;99.90;;;;;;5039213;28;20223;-70
2023/09/22 07:21:03;;;;;;;0.75;0.73;;;16.70;99.90;;;;;;5037768;28;20204;-69
2023/09/22 07:23:32;;;;;;;1.33;0.82;;;17.00;99.90;;;;;;5038535;28;20265;-72
2023/09/22 07:26:01;;;;;;;1.67;0.90;;;17.00;99.90;;;;;;5038418;28;20200;-69
2023/09/22 07:28:29;;;;;;;0.80;0.60;;;17.00;99.90;;;;;;5039915;28;20207;-70
2023/09/22 07:30:58;;;;;;;0.60;0.60;;;17.30;99.90;;;;;;5039120;28;20203;-70
2023/09/22 07:33:30;;;;;;;1.17;0.73;;;17.10;99.90;;;;;;5036942;28;20200;-69
2023/09/22 07:35:59;;;;;;;2.10;1.73;;;17.00;99.90;;;;;;5038777;28;20242;-69
2023/09/22 07:38:29;;;;;;;1.00;0.80;;;17.00;99.90;;;;;;5038926;28;20349;-69
2023/09/22 07:40:59;;;;;;;2.25;1.15;;;16.90;99.90;;;;;;5036891;28;20211;-68
2023/09/22 07:43:29;;;;;;;0.77;0.50;;;16.80;99.90;;;;;;5038260;28;20200;-67
2023/09/22 07:45:58;;;;;;;1.90;0.68;;;16.70;99.90;;;;;;5038832;28;20215;-70
2023/09/22 07:48:27;;;;;;;0.80;0.60;;;16.60;99.90;;;;;;5038554;28;20681;-69
2023/09/22 07:50:55;;;;;;;1.80;0.70;;;16.70;99.90;;;;;;5036679;28;20211;-68
2023/09/22 07:53:25;;;;;;;1.63;0.68;;;16.60;99.90;;;;;;5037923;28;20276;-70
2023/09/22 07:55:58;;;;;;;0.80;0.70;;;16.40;99.90;;;;;;5038729;28;21482;-69
2023/09/22 07:58:29;;;;;;;1.00;0.80;;;16.30;99.90;;;;;;5038207;28;20215;-69
2023/09/22 08:00:59;;;;;;;1.10;0.80;;;16.30;99.90;;;;;;5037591;28;20206;-69
2023/09/22 08:03:28;;;;;;;0.98;0.88;;;16.40;99.90;;;;;;5038078;28;20204;-69
2023/09/22 08:05:56;;;;;;;0.70;0.50;;;16.30;99.90;;;;;;5039763;28;20212;-69
2023/09/22 08:08:25;;;;;;;1.33;0.70;;;16.40;99.90;;;;;;5038326;28;20592;-70
2023/09/22 08:10:53;;;;;;;0.90;0.75;;;16.60;99.90;;;;;;5037411;28;20257;-71
2023/09/22 08:13:21;;;;;;;1.00;0.90;;;16.50;99.90;;;;;;5037863;28;20684;-70
2023/09/22 08:15:51;;;;;;;2.00;1.10;;;16.60;99.90;;;;;;5039137;28;20215;-71
2023/09/22 08:18:19;;;;;;;1.20;0.85;;;16.60;99.90;;;;;;5037445;28;20224;-70
2023/09/22 08:20:48;;;;;;;0.80;0.70;;;16.60;99.90;;;;;;5032838;28;20208;-71
2023/09/22 08:23:15;;;;;;;1.17;0.60;;;16.50;99.90;;;;;;5035428;28;20212;-70
2023/09/22 08:25:44;;;;;;;0.80;0.80;;;16.70;99.90;;;;;;5038117;28;20222;-68
2023/09/22 08:28:12;;;;;;;1.23;0.60;;;16.60;99.90;;;;;;5037159;28;20235;-70
2023/09/22 08:30:41;;;;;;;0.80;0.77;;;16.70;99.90;;;;;;5037467;28;20938;-69
2023/09/22 08:33:10;;;;;;;6.00;0.70;;;16.80;99.90;;;;;;5035853;28;20218;-69
2023/09/22 08:35:39;;;;;;;0.82;0.65;;;16.70;99.90;;;;;;5037755;28;20227;-69
2023/09/22 08:38:29;;;;;;;4.82;0.90;;;16.90;99.90;;;;;;5041103;28;20338;-69
2023/09/22 08:40:58;;;;;;;0.70;0.60;;;17.00;99.90;;;;;;5041175;28;20208;-70
2023/09/22 08:43:27;;;;;;;1.17;0.70;;;17.00;99.90;;;;;;5040837;28;20219;-70
2023/09/22 08:45:55;;;;;;;1.75;0.60;;;17.10;99.90;;;;;;5040957;28;20552;-71
2023/09/22 08:48:25;;;;;;;0.90;0.57;;;17.30;99.90;;;;;;5041638;28;20211;-70
2023/09/22 08:50:54;;;;;;;0.80;0.60;;;17.60;99.90;;;;;;5040125;28;20295;-71
2023/09/22 08:53:22;;;;;;;0.68;0.60;;;17.70;99.90;;;;;;5040360;28;20216;-69
2023/09/22 08:55:51;;;;;;;0.70;0.57;;;17.60;99.90;;;;;;5040583;28;20219;-71
2023/09/22 08:58:19;;;;;;;0.90;0.55;;;17.50;99.90;;;;;;5040862;28;20306;-69
2023/09/22 09:00:48;;;;;;;0.85;0.60;;;17.40;99.90;;;;;;5041406;28;20211;-72
2023/09/22 09:03:20;;;;;;;1.10;0.80;;;17.40;99.90;;;;;;5040580;28;20216;-69
2023/09/22 09:05:50;;;;;;;0.88;0.80;;;17.40;99.90;;;;;;5040630;28;20236;-69
2023/09/22 09:08:21;;;;;;;3.15;0.70;;;17.50;99.90;;;;;;5041743;28;20871;-71
2023/09/22 09:10:50;;;;;;;2.97;0.73;;;17.70;99.90;;;;;;5040976;28;20231;-70
2023/09/22 09:13:20;;;;;;;1.27;0.60;;;17.90;99.90;;;;;;5040979;28;20246;-70
2023/09/22 09:15:49;;;;;;;0.70;0.70;;;18.30;99.90;;;;;;5041023;28;20213;-68
2023/09/22 09:18:20;;;;;;;0.90;0.70;;;18.20;99.90;;;;;;5041140;28;20224;-71
2023/09/22 09:21:05;;;;;;;1.40;0.68;;;18.10;99.90;;;;;;5039827;28;20207;-71
2023/09/22 09:23:33;;;;;;;7.18;0.98;;;17.90;99.90;;;;;;5039350;28;20562;-69
2023/09/22 09:26:01;;;;;;;1.00;0.60;;;17.90;99.90;;;;;;5041247;28;20207;-71
2023/09/22 09:28:30;;;;;;;0.70;0.70;;;18.00;99.90;;;;;;5039529;28;20208;-70
2023/09/22 09:30:59;;;;;;;1.33;0.77;;;18.10;99.90;;;;;;5039561;28;20569;-69
2023/09/22 09:33:29;;;;;;;0.70;0.65;;;18.20;99.90;;;;;;5042728;28;20212;-69
2023/09/22 09:35:59;;;;;;;1.50;0.80;;;18.60;99.90;;;;;;5052393;28;20692;-71
2023/09/22 09:38:28;;;;;;;0.60;0.57;;;19.00;99.90;;;;;;5046680;28;20231;-70
2023/09/22 09:40:58;;;;;;;0.70;0.55;;;19.40;99.90;;;;;;5045626;28;20231;-73
2023/09/22 09:43:26;;;;;;;1.90;0.50;;;19.60;99.90;;;;;;5051350;28;20207;-73
2023/09/22 09:45:57;;;;;;;0.80;0.60;;;19.80;99.90;;;;;;5052664;28;20212;-72
2023/09/22 09:48:28;;;;;;;0.60;0.60;;;20.20;99.90;;;;;;5045720;28;20222;-73
2023/09/22 09:50:59;;;;;;;1.90;0.80;;;20.20;99.90;;;;;;5044361;28;20205;-73
2023/09/22 09:53:37;;;;;;;7.35;0.73;;;19.90;99.90;;;;;;5052280;28;20291;-73
2023/09/22 09:56:06;;;;;;;0.80;0.80;;;19.50;99.90;;;;;;5047687;28;20243;-72
2023/09/22 09:58:36;;;;;;;1.50;0.60;;;19.10;99.90;;;;;;5048133;28;20220;-75
2023/09/22 10:01:06;;;;;;;2.17;1.00;;;19.10;99.90;;;;;;5035098;28;20211;-74
2023/09/22 10:03:35;;;;;;;2.17;0.70;;;19.10;99.90;;;;;;5036758;28;20251;-72
2023/09/22 10:06:07;;;;;;;2.20;1.20;;;19.60;99.90;;;;;;5042449;28;20215;-73
2023/09/22 10:08:34;;;;;;;1.20;0.88;;;20.00;99.90;;;;;;5041141;28;20246;-72
2023/09/22 10:11:04;;;;;;;1.10;0.73;;;19.80;99.90;;;;;;5035958;28;20258;-72
2023/09/22 10:13:35;;;;;;;0.60;0.50;;;19.70;99.90;;;;;;5051433;28;20214;-72
2023/09/22 10:16:04;;;;;;;0.70;0.60;;;19.90;99.90;;;;;;5039697;28;20208;-72
2023/09/22 10:18:47;;;;;;;1.52;1.40;;;20.10;99.90;;;;;;5040319;28;20216;-73
2023/09/22 10:21:39;;;;;;;1.00;0.90;;;20.20;99.90;;;;;;5053298;28;20213;-72
2023/09/22 10:24:24;;;;;;;0.80;0.50;;;20.70;99.90;;;;;;5048727;28;20212;-73
2023/09/22 10:27:09;;;;;;;0.95;0.50;;;20.80;99.90;;;;;;5040694;28;20207;-71
2023/09/22 10:29:54;;;;;;;2.08;1.05;;;20.60;99.90;;;;;;5046504;28;20219;-72
2023/09/22 10:32:28;;;;;;;0.70;0.60;;;20.20;99.90;;;;;;5040098;28;20200;-75
2023/09/22 10:34:58;;;;;;;0.88;0.50;;;20.00;99.90;;;;;;5043785;28;20690;-74
2023/09/22 10:37:29;;;;;;;1.27;0.70;;;19.70;99.90;;;;;;5039422;28;20470;-70
2023/09/22 10:39:58;;;;;;;1.08;0.50;;;19.30;99.90;;;;;;5037038;28;20307;-73
2023/09/22 10:42:27;;;;;;;3.63;0.90;;;19.20;99.90;;;;;;5043025;28;20682;-71
2023/09/22 10:44:59;;;;;;;1.98;0.52;;;19.20;99.90;;;;;;5048415;28;20201;-72
2023/09/22 10:47:41;;;;;;;1.52;0.90;;;19.70;99.90;;;;;;5038294;28;20414;-73
2023/09/22 10:50:14;;;;;;;1.60;0.65;;;20.00;99.90;;;;;;5032746;28;20213;-72
2023/09/22 10:52:50;;;;;;;0.80;0.60;;;20.50;99.90;;;;;;5032781;28;20197;-73
2023/09/22 10:55:34;;;;;;;1.45;0.73;;;20.10;99.90;;;;;;5041873;28;20207;-72
2023/09/22 10:58:04;;;;;;;1.83;0.75;;;20.50;99.90;;;;;;5037863;28;20243;-71
2023/09/22 11:00:35;;;;;;;0.80;0.50;;;20.30;99.90;;;;;;5062396;23;20610;-72
2023/09/22 11:03:08;;;;;;;1.35;0.60;;;20.20;99.90;;;;;;5050950;28;20575;-73
2023/09/22 11:05:37;;;;;;;0.70;0.50;;;20.60;99.90;;;;;;5051488;28;20289;-69
2023/09/22 11:08:15;;;;;;;0.80;0.60;;;21.10;99.90;;;;;;5051808;28;20282;-71
2023/09/22 11:10:47;;;;;;;1.92;0.80;;;21.50;99.90;;;;;;5043208;28;20262;-72
2023/09/22 11:13:16;;;;;;;1.10;0.55;;;21.80;99.90;;;;;;5026705;28;20201;-71
2023/09/22 11:15:49;;;;;;;1.40;0.80;;;21.80;99.90;;;;;;5029180;28;20204;-71
2023/09/22 11:18:22;;;;;;;2.75;0.68;;;21.30;99.90;;;;;;5043327;28;20254;-73
2023/09/22 11:20:54;;;;;;;0.80;0.60;;;21.50;99.90;;;;;;5040105;28;20239;-71
2023/09/22 11:23:24;;;;;;;0.80;0.60;;;21.60;99.90;;;;;;5039593;28;20208;-72
2023/09/22 11:25:57;;;;;;;1.58;0.82;;;21.40;99.90;;;;;;5042479;28;20207;-73
2023/09/22 11:28:26;;;;;;;0.70;0.47;;;21.00;99.90;;;;;;5043099;28;20283;-73
2023/09/22 11:30:54;;;;;;;0.60;0.50;;;20.80;99.90;;;;;;5038234;28;20235;-70
2023/09/22 11:33:23;;;;;;;0.75;0.50;;;20.30;99.90;;;;;;5043011;28;20215;-73
2023/09/22 11:35:53;;;;;;;1.33;1.00;;;20.00;99.90;;;;;;5039823;28;20400;-69
2023/09/22 11:38:30;;;;;;;0.70;0.50;;;20.30;99.90;;;;;;5039577;28;20217;-69
2023/09/22 11:41:04;;;;;;;1.50;0.60;;;20.20;99.90;;;;;;5039243;28;20234;-71
2023/09/22 11:43:32;;;;;;;0.70;0.50;;;20.50;99.90;;;;;;5022795;28;20206;-72
2023/09/22 11:46:11;;;;;;;1.42;0.50;;;21.20;99.90;;;;;;5042659;28;20569;-73
2023/09/22 11:48:53;;;;;;;0.55;0.40;;;21.50;99.90;;;;;;5034618;28;20290;-72
2023/09/22 11:51:21;;;;;;;1.50;0.50;;;21.90;99.90;;;;;;5043164;28;20568;-74
2023/09/22 11:53:50;;;;;;;1.13;0.60;;;22.60;99.90;;;;;;5040261;28;20226;-73
2023/09/22 11:56:18;;;;;;;1.10;0.50;;;22.90;99.90;;;;;;5038979;28;20672;-72
2023/09/22 11:58:46;;;;;;;1.27;0.60;;;23.30;99.90;;;;;;5047067;28;20222;-73
2023/09/22 12:01:14;;;;;;;1.50;0.57;;;23.60;99.90;;;;;;5042531;28;20232;-73
2023/09/22 12:03:43;;;;;;;1.05;0.57;;;23.80;99.90;;;;;;5042629;28;20727;-73
2023/09/22 12:06:13;;;;;;;1.27;0.70;;;23.80;99.20;;;;;;5042728;28;20650;-71
2023/09/22 12:08:41;;;;;;;2.17;0.80;;;23.80;99.90;;;;;;5041317;28;20200;-73
2023/09/22 12:11:10;;;;;;;1.65;0.90;;;24.00;99.20;;;;;;5038429;28;20710;-73
2023/09/22 12:13:40;;;;;;;0.60;0.50;;;24.10;98.90;;;;;;5021570;28;20200;-69
2023/09/22 12:16:08;;;;;;;1.50;0.57;;;24.30;98.70;;;;;;5033026;28;20602;-71
2023/09/22 12:18:36;;;;;;;2.25;0.88;;;24.30;97.90;;;;;;5041726;28;20223;-72
2023/09/22 12:21:04;;;;;;;0.60;0.50;;;24.10;98.70;;;;;;5039212;28;20563;-72
2023/09/22 12:23:33;;;;;;;0.70;0.50;;;24.20;97.50;;;;;;5039053;28;20216;-73
2023/09/22 12:26:01;;;;;;;1.67;0.52;;;24.30;98.30;;;;;;5030837;28;20255;-73
2023/09/22 12:28:31;;;;;;;0.68;0.60;;;24.50;96.90;;;;;;5037791;28;20231;-73
2023/09/22 12:30:59;;;;;;;3.78;0.52;;;24.60;96.30;;;;;;5037738;28;20373;-73
2023/09/22 12:33:27;;;;;;;1.67;0.60;;;24.80;96.30;;;;;;5035343;28;20201;-69
2023/09/22 12:35:55;;;;;;;0.80;0.60;;;24.80;95.50;;;;;;5041326;28;20567;-71
2023/09/22 12:38:23;;;;;;;0.65;0.50;;;24.70;95.00;;;;;;5042205;28;20207;-71
2023/09/22 12:40:52;;;;;;;0.80;0.50;;;24.40;95.30;;;;;;5039988;28;20228;-73
2023/09/22 12:43:20;;;;;;;0.82;0.55;;;24.30;95.60;;;;;;5016290;28;20561;-73
2023/09/22 12:45:49;;;;;;;0.80;0.50;;;23.80;96.10;;;;;;5036435;28;20228;-73
2023/09/22 12:48:17;;;;;;;0.82;0.73;;;23.20;97.30;;;;;;5038387;28;20201;-75
2023/09/22 12:50:54;;;;;;;1.48;0.60;;;22.90;97.50;;;;;;5039449;28;20772;-72
2023/09/22 12:53:23;;;;;;;3.65;0.70;;;23.20;96.80;;;;;;5042021;28;20206;-73
2023/09/22 12:55:57;;;;;;;2.22;0.70;;;23.80;98.10;;;;;;5039882;28;20207;-71
2023/09/22 12:58:27;;;;;;;0.70;0.60;;;24.50;96.50;;;;;;5044645;28;20208;-73
2023/09/22 13:00:57;;;;;;;3.60;1.33;;;24.70;95.90;;;;;;5039284;28;20244;-72